createdAt,value
2022-09-25T00:00:12.619Z,99759.59
2022-09-25T00:00:44.156Z,99762.75
2022-09-25T00:01:15.765Z,99760.94
2022-09-25T00:01:47.410Z,99759.94
2022-09-25T00:02:19.095Z,99761.44
2022-09-25T00:02:50.732Z,99764.28
2022-09-25T00:03:22.300Z,99764.00
2022-09-25T00:03:53.736Z,99763.69
2022-09-25T00:04:25.196Z,99765.50
2022-09-25T00:04:56.702Z,99768.03
2022-09-25T00:05:28.162Z,99765.59
2022-09-25T00:05:59.603Z,99768.63
2022-09-25T00:06:31.029Z,99762.75
2022-09-25T00:07:02.487Z,99766.00
2022-09-25T00:07:34.013Z,99765.38
2022-09-25T00:08:05.426Z,99766.88
2022-09-25T00:08:36.923Z,99765.38
2022-09-25T00:09:10.196Z,99771.34
2022-09-25T00:09:41.914Z,99763.63
2022-09-25T00:10:13.363Z,99769.22
2022-09-25T00:10:44.768Z,99774.59
2022-09-25T00:11:16.205Z,99760.72
2022-09-25T00:11:47.587Z,99775.00
2022-09-25T00:12:19.034Z,99769.41
2022-09-25T00:12:50.432Z,99767.31
2022-09-25T00:13:21.903Z,99767.91
2022-09-25T00:13:53.345Z,99767.31
2022-09-25T00:14:24.789Z,99772.78
2022-09-25T00:14:56.322Z,99768.63
2022-09-25T00:15:27.793Z,99770.63
2022-09-25T00:15:59.205Z,99769.31
2022-09-25T00:16:30.688Z,99773.34
2022-09-25T00:17:02.190Z,99769.13
2022-09-25T00:17:33.729Z,99773.97
2022-09-25T00:18:05.109Z,99774.91
2022-09-25T00:18:36.542Z,99768.63
2022-09-25T00:19:07.942Z,99768.63
2022-09-25T00:19:39.354Z,99778.34
2022-09-25T00:20:10.797Z,99775.31
2022-09-25T00:20:42.271Z,99771.47
2022-09-25T00:21:13.747Z,99775.31
2022-09-25T00:21:45.226Z,99770.84
2022-09-25T00:22:16.688Z,99771.56
2022-09-25T00:22:48.123Z,99772.38
2022-09-25T00:23:19.617Z,99773.91
2022-09-25T00:23:51.069Z,99775.19
2022-09-25T00:24:22.595Z,99771.66
2022-09-25T00:24:54.064Z,99780.19
2022-09-25T00:25:25.577Z,99777.44
2022-09-25T00:25:56.953Z,99774.59
2022-09-25T00:26:28.357Z,99770.53
2022-09-25T00:26:59.747Z,99769.63
2022-09-25T00:27:31.157Z,99773.34
2022-09-25T00:28:02.631Z,99772.97
2022-09-25T00:28:34.053Z,99772.78
2022-09-25T00:29:05.532Z,99766.69
2022-09-25T00:29:36.949Z,99768.81
2022-09-25T00:30:08.347Z,99770.91
2022-09-25T00:30:39.842Z,99769.00
2022-09-25T00:31:11.394Z,99778.63
2022-09-25T00:31:42.838Z,99764.13
2022-09-25T00:32:14.279Z,99764.44
2022-09-25T00:32:45.728Z,99766.06
2022-09-25T00:33:17.232Z,99761.91
2022-09-25T00:33:48.642Z,99769.63
2022-09-25T00:34:20.095Z,99764.63
2022-09-25T00:34:51.500Z,99762.63
2022-09-25T00:35:22.883Z,99761.72
2022-09-25T00:35:54.318Z,99760.59
2022-09-25T00:36:25.723Z,99762.91
2022-09-25T00:36:57.227Z,99761.91
2022-09-25T00:37:28.641Z,99759.09
2022-09-25T00:38:00.072Z,99752.69
2022-09-25T00:38:31.604Z,99754.50
2022-09-25T00:39:03.026Z,99763.81
2022-09-25T00:39:34.531Z,99754.38
2022-09-25T00:40:05.938Z,99756.94
2022-09-25T00:40:37.462Z,99756.00
2022-09-25T00:41:08.892Z,99753.34
2022-09-25T00:41:40.347Z,99753.84
2022-09-25T00:42:11.922Z,99753.03
2022-09-25T00:42:43.343Z,99755.91
2022-09-25T00:43:14.780Z,99760.31
2022-09-25T00:43:46.202Z,99757.97
2022-09-25T00:44:17.630Z,99756.16
2022-09-25T00:44:49.188Z,99761.84
2022-09-25T00:45:20.620Z,99751.50
2022-09-25T00:45:52.066Z,99765.19
2022-09-25T00:46:23.683Z,99757.47
2022-09-25T00:46:55.224Z,99751.50
2022-09-25T00:47:26.643Z,99753.44
2022-09-25T00:47:58.081Z,99757.78
2022-09-25T00:48:29.486Z,99751.06
2022-09-25T00:49:00.905Z,99758.59
2022-09-25T00:49:32.359Z,99755.66
2022-09-25T00:50:03.858Z,99758.22
2022-09-25T00:50:35.251Z,99760.97
2022-09-25T00:51:06.741Z,99756.94
2022-09-25T00:51:38.162Z,99762.47
2022-09-25T00:52:09.593Z,99763.44
2022-09-25T00:52:41.069Z,99754.81
2022-09-25T00:53:12.526Z,99758.44
2022-09-25T00:53:43.979Z,99760.06
2022-09-25T00:54:15.622Z,99756.50
2022-09-25T00:54:47.118Z,99758.50
2022-09-25T00:55:18.633Z,99763.28
2022-09-25T00:55:50.095Z,99760.44
2022-09-25T00:56:21.544Z,99758.78
2022-09-25T00:56:52.943Z,99753.63
2022-09-25T00:57:24.418Z,99759.78
2022-09-25T00:57:55.812Z,99750.84
2022-09-25T00:58:27.290Z,99753.47
2022-09-25T00:58:58.726Z,99755.59
2022-09-25T00:59:30.142Z,99760.66
2022-09-25T01:00:01.568Z,99751.34
2022-09-25T01:00:32.995Z,99755.41
2022-09-25T01:01:04.514Z,99766.53
2022-09-25T01:01:36.014Z,99759.53
2022-09-25T01:02:07.512Z,99756.72
2022-09-25T01:02:39.077Z,99761.94
2022-09-25T01:03:10.481Z,99761.00
2022-09-25T01:03:42.032Z,99760.34
2022-09-25T01:04:13.587Z,99758.22
2022-09-25T01:04:45.041Z,99760.03
2022-09-25T01:05:16.571Z,99756.09
2022-09-25T01:05:48.029Z,99763.00
2022-09-25T01:06:19.450Z,99759.16
2022-09-25T01:06:50.959Z,99762.56
2022-09-25T01:07:22.402Z,99759.25
2022-09-25T01:07:53.905Z,99761.78
2022-09-25T01:08:25.341Z,99762.59
2022-09-25T01:08:56.770Z,99764.88
2022-09-25T01:09:28.204Z,99769.56
2022-09-25T01:09:59.605Z,99758.63
2022-09-25T01:10:31.049Z,99762.50
2022-09-25T01:11:02.616Z,99763.72
2022-09-25T01:11:34.030Z,99767.69
2022-09-25T01:12:05.431Z,99770.66
2022-09-25T01:12:36.927Z,99762.03
2022-09-25T01:13:08.325Z,99755.56
2022-09-25T01:13:39.769Z,99766.09
2022-09-25T01:14:11.253Z,99768.13
2022-09-25T01:14:42.709Z,99768.22
2022-09-25T01:15:14.126Z,99761.31
2022-09-25T01:15:45.599Z,99767.91
2022-09-25T01:16:17.291Z,99764.06
2022-09-25T01:16:48.833Z,99769.22
2022-09-25T01:17:20.333Z,99770.13
2022-09-25T01:17:51.749Z,99766.06
2022-09-25T01:18:23.173Z,99778.31
2022-09-25T01:18:54.574Z,99769.31
2022-09-25T01:19:26.010Z,99769.66
2022-09-25T01:19:57.488Z,99765.41
2022-09-25T01:20:28.932Z,99772.63
2022-09-25T01:21:00.304Z,99776.78
2022-09-25T01:21:31.823Z,99765.59
2022-09-25T01:22:03.252Z,99772.88
2022-09-25T01:22:34.716Z,99771.56
2022-09-25T01:23:06.124Z,99774.19
2022-09-25T01:23:37.547Z,99767.53
2022-09-25T01:24:08.955Z,99766.53
2022-09-25T01:24:41.090Z,99768.16
2022-09-25T01:25:12.731Z,99767.53
2022-09-25T01:25:44.231Z,99766.41
2022-09-25T01:26:16.097Z,99767.09
2022-09-25T01:26:47.638Z,99760.22
2022-09-25T01:27:19.038Z,99767.09
2022-09-25T01:27:50.478Z,99769.53
2022-09-25T01:28:21.995Z,99767.16
2022-09-25T01:28:53.428Z,99766.38
2022-09-25T01:29:24.858Z,99762.63
2022-09-25T01:29:56.257Z,99764.88
2022-09-25T01:30:27.721Z,99762.63
2022-09-25T01:30:59.329Z,99760.53
2022-09-25T01:31:30.753Z,99761.63
2022-09-25T01:32:02.238Z,99763.88
2022-09-25T01:32:33.743Z,99770.34
2022-09-25T01:33:05.232Z,99767.31
2022-09-25T01:33:36.673Z,99768.31
2022-09-25T01:34:08.161Z,99769.97
2022-09-25T01:34:39.599Z,99773.50
2022-09-25T01:35:11.016Z,99764.28
2022-09-25T01:35:42.417Z,99766.91
2022-09-25T01:36:13.857Z,99767.53
2022-09-25T01:36:45.245Z,99766.09
2022-09-25T01:37:16.678Z,99762.63
2022-09-25T01:37:48.130Z,99765.25
2022-09-25T01:38:19.533Z,99768.72
2022-09-25T01:38:50.976Z,99763.88
2022-09-25T01:39:22.368Z,99763.56
2022-09-25T01:39:53.834Z,99765.06
2022-09-25T01:40:25.376Z,99761.44
2022-09-25T01:40:56.945Z,99765.88
2022-09-25T01:41:28.403Z,99772.28
2022-09-25T01:41:59.900Z,99770.34
2022-09-25T01:42:31.288Z,99772.66
2022-09-25T01:43:02.804Z,99771.16
2022-09-25T01:43:34.369Z,99765.69
2022-09-25T01:44:05.926Z,99767.44
2022-09-25T01:44:37.417Z,99779.22
2022-09-25T01:45:08.876Z,99771.09
2022-09-25T01:45:40.318Z,99775.63
2022-09-25T01:46:12.024Z,99781.44
2022-09-25T01:46:43.708Z,99765.84
2022-09-25T01:47:15.129Z,99777.50
2022-09-25T01:47:46.559Z,99778.44
2022-09-25T01:48:18.034Z,99771.97
2022-09-25T01:48:49.481Z,99776.81
2022-09-25T01:49:20.958Z,99773.97
2022-09-25T01:49:52.354Z,99776.31
2022-09-25T01:50:23.739Z,99777.94
2022-09-25T01:50:55.153Z,99775.13
2022-09-25T01:51:26.608Z,99781.25
2022-09-25T01:51:58.122Z,99769.94
2022-09-25T01:52:29.560Z,99778.28
2022-09-25T01:53:01.003Z,99782.06
2022-09-25T01:53:32.447Z,99773.16
2022-09-25T01:54:03.911Z,99772.53
2022-09-25T01:54:35.361Z,99773.78
2022-09-25T01:55:06.730Z,99774.44
2022-09-25T01:55:38.222Z,99777.78
2022-09-25T01:56:09.624Z,99770.19
2022-09-25T01:56:41.064Z,99779.09
2022-09-25T01:57:12.619Z,99778.59
2022-09-25T01:57:44.040Z,99774.19
2022-09-25T01:58:15.524Z,99774.81
2022-09-25T01:58:46.929Z,99772.50
2022-09-25T01:59:18.513Z,99769.97
2022-09-25T01:59:49.964Z,99766.22
2022-09-25T02:00:21.366Z,99769.66
2022-09-25T02:00:52.758Z,99770.16
2022-09-25T02:01:24.211Z,99778.88
2022-09-25T02:01:55.713Z,99771.56
2022-09-25T02:02:27.259Z,99764.59
2022-09-25T02:02:58.749Z,99773.63
2022-09-25T02:03:30.299Z,99769.47
2022-09-25T02:04:01.708Z,99770.28
2022-09-25T02:04:33.142Z,99770.56
2022-09-25T02:05:04.569Z,99762.88
2022-09-25T02:05:36.031Z,99770.56
2022-09-25T02:06:07.445Z,99769.66
2022-09-25T02:06:38.913Z,99772.38
2022-09-25T02:07:10.353Z,99769.53
2022-09-25T02:07:41.780Z,99769.72
2022-09-25T02:08:13.224Z,99770.72
2022-09-25T02:08:44.752Z,99776.31
2022-09-25T02:09:16.409Z,99775.75
2022-09-25T02:09:47.961Z,99771.19
2022-09-25T02:10:19.467Z,99772.53
2022-09-25T02:10:51.099Z,99769.00
2022-09-25T02:11:22.587Z,99772.84
2022-09-25T02:11:54.146Z,99772.63
2022-09-25T02:12:25.830Z,99776.28
2022-09-25T02:12:57.888Z,99777.59
2022-09-25T02:13:29.853Z,99773.56
2022-09-25T02:14:01.399Z,99770.81
2022-09-25T02:14:32.809Z,99774.38
2022-09-25T02:15:04.272Z,99765.56
2022-09-25T02:15:35.684Z,99772.63
2022-09-25T02:16:07.253Z,99765.13
2022-09-25T02:16:38.778Z,99775.25
2022-09-25T02:17:10.315Z,99777.88
2022-09-25T02:17:41.834Z,99770.00
2022-09-25T02:18:13.279Z,99773.44
2022-09-25T02:18:44.663Z,99774.34
2022-09-25T02:19:16.063Z,99773.03
2022-09-25T02:19:47.459Z,99773.22
2022-09-25T02:20:18.896Z,99771.41
2022-09-25T02:20:50.347Z,99770.38
2022-09-25T02:21:21.780Z,99767.22
2022-09-25T02:21:53.247Z,99770.06
2022-09-25T02:22:24.675Z,99775.34
2022-09-25T02:22:56.095Z,99774.22
2022-09-25T02:23:27.532Z,99775.75
2022-09-25T02:23:58.968Z,99768.47
2022-09-25T02:24:30.414Z,99773.28
2022-09-25T02:25:01.873Z,99773.69
2022-09-25T02:25:33.284Z,99769.91
2022-09-25T02:26:04.877Z,99769.72
2022-09-25T02:26:36.325Z,99765.19
2022-09-25T02:27:07.809Z,99774.41
2022-09-25T02:27:39.270Z,99772.16
2022-09-25T02:28:10.714Z,99766.19
2022-09-25T02:28:42.127Z,99768.00
2022-09-25T02:29:13.631Z,99770.16
2022-09-25T02:29:45.047Z,99774.31
2022-09-25T02:30:16.483Z,99774.19
2022-09-25T02:30:47.985Z,99774.19
2022-09-25T02:31:19.499Z,99771.47
2022-09-25T02:31:50.952Z,99776.13
2022-09-25T02:32:22.370Z,99773.38
2022-09-25T02:32:53.779Z,99779.88
2022-09-25T02:33:25.185Z,99774.69
2022-09-25T02:33:56.609Z,99772.50
2022-09-25T02:34:28.122Z,99774.63
2022-09-25T02:34:59.541Z,99775.44
2022-09-25T02:35:30.991Z,99769.66
2022-09-25T02:36:02.561Z,99773.81
2022-09-25T02:36:33.969Z,99779.41
2022-09-25T02:37:05.442Z,99774.84
2022-09-25T02:37:36.891Z,99771.22
2022-09-25T02:38:08.315Z,99769.91
2022-09-25T02:38:39.801Z,99764.50
2022-09-25T02:39:11.223Z,99777.06
2022-09-25T02:39:42.618Z,99764.50
2022-09-25T02:40:14.063Z,99764.19
2022-09-25T02:40:45.584Z,99769.84
2022-09-25T02:41:17.046Z,99768.22
2022-09-25T02:41:48.447Z,99768.22
2022-09-25T02:42:19.863Z,99768.72
2022-09-25T02:42:51.319Z,99767.50
2022-09-25T02:43:22.784Z,99768.91
2022-09-25T02:43:54.271Z,99760.59
2022-09-25T02:44:25.718Z,99769.22
2022-09-25T02:44:57.167Z,99771.78
2022-09-25T02:45:28.651Z,99762.56
2022-09-25T02:46:00.237Z,99765.91
2022-09-25T02:46:31.753Z,99759.59
2022-09-25T02:47:03.149Z,99768.50
2022-09-25T02:47:34.559Z,99769.63
2022-09-25T02:48:06.106Z,99766.88
2022-09-25T02:48:37.542Z,99767.00
2022-09-25T02:49:09.024Z,99771.16
2022-09-25T02:49:40.453Z,99768.91
2022-09-25T02:50:11.916Z,99770.22
2022-09-25T02:50:43.314Z,99775.19
2022-09-25T02:51:14.800Z,99766.69
2022-09-25T02:51:46.192Z,99768.31
2022-09-25T02:52:17.611Z,99762.63
2022-09-25T02:52:49.054Z,99764.13
2022-09-25T02:53:20.410Z,99762.53
2022-09-25T02:53:51.842Z,99766.88
2022-09-25T02:54:23.367Z,99768.19
2022-09-25T02:54:54.819Z,99764.63
2022-09-25T02:55:26.432Z,99766.69
2022-09-25T02:55:57.976Z,99769.13
2022-09-25T02:56:29.443Z,99770.91
2022-09-25T02:57:03.995Z,99769.91
2022-09-25T02:57:35.813Z,99769.91
2022-09-25T02:58:07.200Z,99768.13
2022-09-25T02:58:38.646Z,99762.53
2022-09-25T02:59:10.221Z,99762.34
2022-09-25T02:59:41.630Z,99759.41
2022-09-25T03:00:13.045Z,99764.13
2022-09-25T03:00:44.523Z,99770.53
2022-09-25T03:01:16.110Z,99767.09
2022-09-25T03:01:47.690Z,99770.97
2022-09-25T03:02:19.162Z,99761.53
2022-09-25T03:02:52.570Z,99763.94
2022-09-25T03:03:24.155Z,99762.09
2022-09-25T03:03:55.605Z,99760.78
2022-09-25T03:04:27.034Z,99765.69
2022-09-25T03:04:58.486Z,99762.44
2022-09-25T03:05:29.896Z,99766.31
2022-09-25T03:06:01.418Z,99757.91
2022-09-25T03:06:32.900Z,99762.44
2022-09-25T03:07:04.314Z,99762.63
2022-09-25T03:07:35.768Z,99764.25
2022-09-25T03:08:07.210Z,99758.16
2022-09-25T03:08:38.636Z,99757.34
2022-09-25T03:09:10.130Z,99757.06
2022-09-25T03:09:41.524Z,99762.03
2022-09-25T03:10:12.973Z,99762.75
2022-09-25T03:10:44.401Z,99767.22
2022-09-25T03:11:15.832Z,99762.94
2022-09-25T03:11:47.246Z,99756.28
2022-09-25T03:12:18.644Z,99764.75
2022-09-25T03:12:50.097Z,99761.69
2022-09-25T03:13:21.553Z,99763.34
2022-09-25T03:13:52.958Z,99762.53
2022-09-25T03:14:24.399Z,99765.56
2022-09-25T03:14:55.763Z,99766.06
2022-09-25T03:15:27.196Z,99760.78
2022-09-25T03:15:58.673Z,99772.22
2022-09-25T03:16:30.240Z,99772.13
2022-09-25T03:17:01.695Z,99770.00
2022-09-25T03:17:33.101Z,99765.75
2022-09-25T03:18:04.574Z,99778.00
2022-09-25T03:18:36.014Z,99770.81
2022-09-25T03:19:07.543Z,99774.66
2022-09-25T03:19:38.988Z,99766.03
2022-09-25T03:20:10.435Z,99766.94
2022-09-25T03:20:41.862Z,99775.25
2022-09-25T03:21:13.298Z,99768.47
2022-09-25T03:21:44.782Z,99760.66
2022-09-25T03:22:16.201Z,99772.34
2022-09-25T03:22:47.635Z,99769.78
2022-09-25T03:23:19.051Z,99770.81
2022-09-25T03:23:50.498Z,99771.31
2022-09-25T03:24:21.955Z,99765.53
2022-09-25T03:24:53.452Z,99771.31
2022-09-25T03:25:24.860Z,99773.03
2022-09-25T03:25:56.244Z,99768.19
2022-09-25T03:26:27.699Z,99759.78
2022-09-25T03:26:59.229Z,99769.41
2022-09-25T03:27:30.682Z,99770.22
2022-09-25T03:28:02.101Z,99770.72
2022-09-25T03:28:33.570Z,99766.66
2022-09-25T03:29:05.047Z,99769.59
2022-09-25T03:29:36.442Z,99766.94
2022-09-25T03:30:07.914Z,99771.09
2022-09-25T03:30:39.412Z,99770.81
2022-09-25T03:31:10.861Z,99781.44
2022-09-25T03:31:42.442Z,99770.81
2022-09-25T03:32:13.859Z,99761.19
2022-09-25T03:32:45.341Z,99765.25
2022-09-25T03:33:16.764Z,99767.56
2022-09-25T03:33:48.209Z,99770.59
2022-09-25T03:34:19.661Z,99772.22
2022-09-25T03:34:51.100Z,99770.09
2022-09-25T03:35:22.536Z,99768.19
2022-09-25T03:35:54.045Z,99768.88
2022-09-25T03:36:25.467Z,99773.03
2022-09-25T03:36:56.878Z,99775.97
2022-09-25T03:37:28.350Z,99771.31
2022-09-25T03:37:59.748Z,99766.44
2022-09-25T03:38:31.138Z,99763.31
2022-09-25T03:39:02.742Z,99769.72
2022-09-25T03:39:34.163Z,99770.91
2022-09-25T03:40:05.669Z,99774.66
2022-09-25T03:40:37.132Z,99769.41
2022-09-25T03:41:08.630Z,99772.13
2022-09-25T03:41:39.998Z,99767.66
2022-09-25T03:42:11.450Z,99768.56
2022-09-25T03:42:42.917Z,99765.34
2022-09-25T03:43:44.523Z,99773.84
2022-09-25T03:44:16.012Z,99767.38
2022-09-25T03:44:47.459Z,99775.47
2022-09-25T03:45:18.834Z,99767.47
2022-09-25T03:45:50.327Z,99771.53
2022-09-25T03:46:22.035Z,99771.53
2022-09-25T03:46:53.709Z,99776.38
2022-09-25T03:47:25.183Z,99774.97
2022-09-25T03:47:56.614Z,99777.31
2022-09-25T03:48:28.052Z,99773.88
2022-09-25T03:48:59.456Z,99773.88
2022-09-25T03:49:30.847Z,99780.84
2022-09-25T03:50:02.267Z,99777.00
2022-09-25T03:50:33.803Z,99767.66
2022-09-25T03:51:05.244Z,99773.66
2022-09-25T03:51:36.722Z,99767.56
2022-09-25T03:52:08.152Z,99774.16
2022-09-25T03:52:39.556Z,99766.66
2022-09-25T03:53:10.983Z,99770.00
2022-09-25T03:53:42.457Z,99769.72
2022-09-25T03:54:14.014Z,99764.84
2022-09-25T03:54:45.457Z,99764.34
2022-09-25T03:55:16.899Z,99769.19
2022-09-25T03:55:48.452Z,99772.25
2022-09-25T03:56:19.918Z,99764.44
2022-09-25T03:56:51.525Z,99770.53
2022-09-25T03:57:22.958Z,99768.91
2022-09-25T03:57:54.454Z,99769.41
2022-09-25T03:58:25.873Z,99771.03
2022-09-25T03:58:57.352Z,99771.03
2022-09-25T03:59:28.765Z,99775.38
2022-09-25T04:00:00.212Z,99772.63
2022-09-25T04:00:31.608Z,99769.28
2022-09-25T04:01:03.083Z,99775.56
2022-09-25T04:01:34.513Z,99778.91
2022-09-25T04:02:06.185Z,99774.25
2022-09-25T04:02:37.711Z,99771.09
2022-09-25T04:03:09.247Z,99773.25
2022-09-25T04:03:40.689Z,99774.47
2022-09-25T04:04:12.215Z,99769.63
2022-09-25T04:04:43.701Z,99771.25
2022-09-25T04:05:15.102Z,99771.94
2022-09-25T04:05:46.499Z,99772.44
2022-09-25T04:06:17.911Z,99773.66
2022-09-25T04:06:49.317Z,99771.94
2022-09-25T04:07:20.819Z,99779.13
2022-09-25T04:07:52.215Z,99776.00
2022-09-25T04:08:23.646Z,99775.47
2022-09-25T04:08:55.143Z,99781.06
2022-09-25T04:09:26.534Z,99779.13
2022-09-25T04:09:58.057Z,99778.13
2022-09-25T04:10:29.496Z,99778.22
2022-09-25T04:11:00.901Z,99772.75
2022-09-25T04:11:32.315Z,99773.66
2022-09-25T04:12:03.711Z,99775.69
2022-09-25T04:12:35.142Z,99772.75
2022-09-25T04:13:06.539Z,99775.38
2022-09-25T04:13:38.025Z,99781.84
2022-09-25T04:14:09.491Z,99782.47
2022-09-25T04:14:40.966Z,99773.88
2022-09-25T04:15:12.426Z,99773.78
2022-09-25T04:15:43.863Z,99774.97
2022-09-25T04:16:15.374Z,99773.25
2022-09-25T04:16:46.997Z,99772.16
2022-09-25T04:17:18.481Z,99777.63
2022-09-25T04:17:49.919Z,99774.06
2022-09-25T04:18:21.314Z,99772.84
2022-09-25T04:18:52.698Z,99773.88
2022-09-25T04:19:24.127Z,99772.75
2022-09-25T04:19:55.606Z,99771.75
2022-09-25T04:20:27.052Z,99774.47
2022-09-25T04:20:58.515Z,99775.41
2022-09-25T04:21:29.922Z,99774.16
2022-09-25T04:22:01.352Z,99770.84
2022-09-25T04:22:32.816Z,99774.78
2022-09-25T04:23:04.222Z,99772.66
2022-09-25T04:23:35.653Z,99770.94
2022-09-25T04:24:07.124Z,99772.84
2022-09-25T04:24:38.589Z,99771.75
2022-09-25T04:25:10.019Z,99766.78
2022-09-25T04:25:41.489Z,99776.38
2022-09-25T04:26:12.942Z,99772.44
2022-09-25T04:26:44.482Z,99769.50
2022-09-25T04:27:15.905Z,99769.72
2022-09-25T04:27:47.286Z,99774.47
2022-09-25T04:28:18.693Z,99770.22
2022-09-25T04:28:50.205Z,99772.84
2022-09-25T04:29:21.665Z,99767.69
2022-09-25T04:29:53.115Z,99772.25
2022-09-25T04:30:24.584Z,99769.00
2022-09-25T04:30:56.141Z,99763.53
2022-09-25T04:31:27.703Z,99768.31
2022-09-25T04:31:59.298Z,99772.13
2022-09-25T04:32:30.795Z,99765.47
2022-09-25T04:33:02.260Z,99772.63
2022-09-25T04:33:33.769Z,99772.13
2022-09-25T04:34:05.263Z,99769.50
2022-09-25T04:34:36.672Z,99770.72
2022-09-25T04:35:08.253Z,99770.94
2022-09-25T04:35:39.616Z,99770.44
2022-09-25T04:36:11.045Z,99778.03
2022-09-25T04:36:42.466Z,99770.72
2022-09-25T04:37:13.958Z,99773.56
2022-09-25T04:37:45.383Z,99766.88
2022-09-25T04:38:16.805Z,99769.13
2022-09-25T04:38:48.221Z,99779.03
2022-09-25T04:39:19.690Z,99773.56
2022-09-25T04:39:51.092Z,99769.03
2022-09-25T04:40:22.629Z,99769.53
2022-09-25T04:40:54.174Z,99768.63
2022-09-25T04:41:25.654Z,99768.41
2022-09-25T04:41:57.086Z,99768.41
2022-09-25T04:42:28.454Z,99764.38
2022-09-25T04:42:59.865Z,99766.88
2022-09-25T04:43:31.294Z,99769.31
2022-09-25T04:44:02.747Z,99768.91
2022-09-25T04:44:34.173Z,99769.63
2022-09-25T04:45:05.623Z,99772.97
2022-09-25T04:45:37.129Z,99773.78
2022-09-25T04:46:08.617Z,99766.50
2022-09-25T04:46:40.145Z,99774.06
2022-09-25T04:47:11.566Z,99768.41
2022-09-25T04:47:42.965Z,99765.88
2022-09-25T04:48:14.346Z,99770.84
2022-09-25T04:48:45.770Z,99773.56
2022-09-25T04:49:17.205Z,99770.03
2022-09-25T04:49:48.681Z,99764.97
2022-09-25T04:50:20.197Z,99774.28
2022-09-25T04:50:51.673Z,99769.81
2022-09-25T04:51:23.156Z,99774.28
2022-09-25T04:51:54.572Z,99768.22
2022-09-25T04:52:25.948Z,99771.75
2022-09-25T04:52:57.461Z,99770.34
2022-09-25T04:53:28.910Z,99773.06
2022-09-25T04:54:00.358Z,99773.78
2022-09-25T04:54:32.135Z,99770.44
2022-09-25T04:55:03.663Z,99768.94
2022-09-25T04:55:35.014Z,99770.63
2022-09-25T04:56:09.681Z,99774.06
2022-09-25T04:56:43.822Z,99772.06
2022-09-25T04:57:27.409Z,99773.47
2022-09-25T04:58:06.686Z,99779.84
2022-09-25T04:58:38.085Z,99769.31
2022-09-25T04:59:09.538Z,99764.56
2022-09-25T04:59:40.907Z,99766.09
2022-09-25T05:00:12.306Z,99775.50
2022-09-25T05:00:43.664Z,99767.09
2022-09-25T05:01:15.195Z,99766.38
2022-09-25T05:01:46.870Z,99773.28
2022-09-25T05:02:18.436Z,99770.03
2022-09-25T05:02:49.967Z,99770.13
2022-09-25T05:03:21.601Z,99763.16
2022-09-25T05:03:53.161Z,99773.88
2022-09-25T05:04:24.751Z,99768.63
2022-09-25T05:04:56.163Z,99762.13
2022-09-25T05:05:27.616Z,99775.41
2022-09-25T05:05:59.006Z,99769.72
2022-09-25T05:06:30.409Z,99768.63
2022-09-25T05:07:01.849Z,99763.75
2022-09-25T05:07:33.313Z,99766.00
2022-09-25T05:08:04.704Z,99767.59
2022-09-25T05:08:36.173Z,99770.13
2022-09-25T05:09:07.547Z,99770.03
2022-09-25T05:09:38.975Z,99765.38
2022-09-25T05:10:10.357Z,99770.25
2022-09-25T05:10:41.746Z,99768.81
2022-09-25T05:11:13.202Z,99768.63
2022-09-25T05:11:44.609Z,99772.78
2022-09-25T05:12:16.079Z,99769.31
2022-09-25T05:12:47.525Z,99771.66
2022-09-25T05:13:18.905Z,99773.38
2022-09-25T05:13:50.347Z,99769.94
2022-09-25T05:14:21.709Z,99768.00
2022-09-25T05:14:53.148Z,99763.03
2022-09-25T05:15:24.558Z,99770.44
2022-09-25T05:15:56.009Z,99776.63
2022-09-25T05:16:27.475Z,99767.31
2022-09-25T05:16:58.952Z,99777.22
2022-09-25T05:17:30.412Z,99773.56
2022-09-25T05:18:01.906Z,99772.16
2022-09-25T05:18:33.260Z,99778.53
2022-09-25T05:19:04.753Z,99782.38
2022-09-25T05:19:36.129Z,99773.19
2022-09-25T05:20:07.580Z,99771.84
2022-09-25T05:20:39.019Z,99771.25
2022-09-25T05:21:10.481Z,99778.75
2022-09-25T05:21:41.910Z,99776.94
2022-09-25T05:22:13.344Z,99778.25
2022-09-25T05:22:44.841Z,99783.41
2022-09-25T05:23:16.271Z,99779.34
2022-09-25T05:23:47.649Z,99767.00
2022-09-25T05:24:19.059Z,99779.34
2022-09-25T05:24:53.026Z,99775.31
2022-09-25T05:25:26.714Z,99773.19
2022-09-25T05:25:58.166Z,99768.22
2022-09-25T05:26:29.589Z,99779.56
2022-09-25T05:27:01.055Z,99771.06
2022-09-25T05:27:32.475Z,99778.94
2022-09-25T05:28:04.005Z,99767.59
2022-09-25T05:28:35.406Z,99767.72
2022-09-25T05:29:06.837Z,99767.41
2022-09-25T05:29:38.312Z,99764.97
2022-09-25T05:30:09.694Z,99765.06
2022-09-25T05:30:41.312Z,99773.38
2022-09-25T05:31:12.767Z,99777.94
2022-09-25T05:31:44.377Z,99769.72
2022-09-25T05:32:15.792Z,99766.28
2022-09-25T05:32:47.272Z,99769.03
2022-09-25T05:33:18.770Z,99768.63
2022-09-25T05:33:50.354Z,99772.97
2022-09-25T05:34:21.881Z,99768.81
2022-09-25T05:34:53.487Z,99761.13
2022-09-25T05:35:24.919Z,99770.03
2022-09-25T05:35:56.441Z,99763.56
2022-09-25T05:36:27.834Z,99769.84
2022-09-25T05:36:59.240Z,99763.56
2022-09-25T05:37:30.633Z,99764.38
2022-09-25T05:38:02.137Z,99764.06
2022-09-25T05:38:33.633Z,99760.63
2022-09-25T05:39:05.047Z,99760.31
2022-09-25T05:39:36.507Z,99764.06
2022-09-25T05:40:07.994Z,99768.22
2022-09-25T05:40:39.539Z,99762.25
2022-09-25T05:41:11.104Z,99769.84
2022-09-25T05:41:42.528Z,99762.66
2022-09-25T05:42:14.033Z,99756.06
2022-09-25T05:42:45.453Z,99760.22
2022-09-25T05:43:16.953Z,99762.13
2022-09-25T05:43:48.413Z,99765.69
2022-09-25T05:44:19.847Z,99764.97
2022-09-25T05:44:51.237Z,99759.72
2022-09-25T05:45:22.656Z,99758.81
2022-09-25T05:45:54.179Z,99759.72
2022-09-25T05:46:25.704Z,99754.53
2022-09-25T05:46:57.211Z,99754.03
2022-09-25T05:47:28.571Z,99758.38
2022-09-25T05:48:00.145Z,99759.41
2022-09-25T05:48:31.599Z,99758.09
2022-09-25T05:49:03.057Z,99757.88
2022-09-25T05:49:34.498Z,99754.44
2022-09-25T05:50:05.930Z,99757.38
2022-09-25T05:50:37.350Z,99760.72
2022-09-25T05:51:08.758Z,99755.34
2022-09-25T05:51:40.198Z,99760.00
2022-09-25T05:52:11.602Z,99757.88
2022-09-25T05:52:43.027Z,99762.75
2022-09-25T05:53:14.425Z,99759.72
2022-09-25T05:53:45.926Z,99762.53
2022-09-25T05:54:17.377Z,99758.69
2022-09-25T05:54:48.739Z,99761.13
2022-09-25T05:55:20.159Z,99764.88
2022-09-25T05:55:51.564Z,99759.50
2022-09-25T05:56:23.003Z,99764.66
2022-09-25T05:56:54.505Z,99768.31
2022-09-25T05:57:25.887Z,99759.91
2022-09-25T05:57:57.299Z,99761.22
2022-09-25T05:58:28.700Z,99759.31
2022-09-25T05:59:00.175Z,99766.91
2022-09-25T05:59:31.577Z,99762.53
2022-09-25T06:00:02.977Z,99762.44
2022-09-25T06:00:34.378Z,99759.72
2022-09-25T06:01:05.757Z,99761.72
2022-09-25T06:01:37.250Z,99760.00
2022-09-25T06:02:08.815Z,99768.00
2022-09-25T06:02:40.309Z,99761.72
2022-09-25T06:03:11.831Z,99760.81
2022-09-25T06:03:43.265Z,99767.31
2022-09-25T06:04:14.786Z,99766.69
2022-09-25T06:04:46.197Z,99765.19
2022-09-25T06:05:17.635Z,99758.59
2022-09-25T06:05:49.126Z,99760.31
2022-09-25T06:06:23.784Z,99774.09
2022-09-25T06:06:58.698Z,99776.41
2022-09-25T06:07:30.106Z,99767.59
2022-09-25T06:08:01.569Z,99764.56
2022-09-25T06:08:33.060Z,99771.25
2022-09-25T06:09:04.481Z,99765.38
2022-09-25T06:09:35.990Z,99771.88
2022-09-25T06:10:07.421Z,99774.59
2022-09-25T06:10:38.828Z,99772.47